Weather reports worldwide

Advertisment
Ross-on-Wye, United Kingdom (99207): temperature & dewpoint: 29.07.2020 00:00:00 - 04.08.2020 00:00:00 (BST)Ross-on-Wye, United Kingdom (99207): temperature -20cm: 29.07.2020 00:00:00 - 04.08.2020 00:00:00 (BST)Ross-on-Wye, United Kingdom (99207): wind speed: 29.07.2020 00:00:00 - 04.08.2020 00:00:00 (BST)Ross-on-Wye, United Kingdom (99207): wind direction: 29.07.2020 00:00:00 - 04.08.2020 00:00:00 (BST)Ross-on-Wye, United Kingdom (99207): sunshine duration: 29.07.2020 00:00:00 - 04.08.2020 00:00:00 (BST)Ross-on-Wye, United Kingdom (99207): precipitation: 29.07.2020 00:00:00 - 04.08.2020 00:00:00 (BST)
Date & Time tt [°C] td [°C] tt -20cm [°C] ff [km/h] ff [kn] dd sd [min] rr [mm]
04.08.2020 00:00:00 12,2 -0,2 - 5 3 SW 0 0,0
03.08.2020 23:00:00 13,2 1,0 - 4 2 WSW 0 0,0
03.08.2020 22:00:00 14,1 2,1 - 4 2 W 0 0,0
03.08.2020 21:00:00 15,7 4,1 - 8 4 W 18 0,0
03.08.2020 20:00:00 18,3 7,2 - 13 7 W 60 0,0
03.08.2020 19:00:00 19,8 9,1 - 11 6 WNW 48 0,0
03.08.2020 18:00:00 19,4 8,7 - 8 4 NNW 24 0,0
03.08.2020 17:00:00 18,7 7,8 - 5 3 NNW 6 0,0
03.08.2020 16:00:00 18,5 7,5 - 11 6 WNW 0 0,0
03.08.2020 15:00:00 19,4 8,6 - 9 5 NNW 6 0,0
03.08.2020 14:00:00 18,8 7,7 - 11 6 W 0 0,0
03.08.2020 13:00:00 18,8 7,8 - 11 6 NW 0 0,0
03.08.2020 12:00:00 18,2 7,1 - 11 6 WNW 36 0,0
03.08.2020 11:00:00 18,0 6,7 - 9 5 WNW 18 0,0
03.08.2020 10:00:00 17,2 5,7 18,7 5 3 WNW 36 0,0
03.08.2020 09:00:00 14,3 2,3 - 4 2 W 60 0,0
03.08.2020 08:00:00 11,3 -1,4 - 2 1 WSW 60 0,0
03.08.2020 07:00:00 9,0 -4,3 - 4 2 SW 30 0,0
03.08.2020 06:00:00 8,4 -4,9 - 4 2 W 0 0,0
03.08.2020 05:00:00 9,2 -3,9 - 4 2 S 0 0,0
03.08.2020 04:00:00 9,9 -3,1 - 4 2 SW 0 0,0
03.08.2020 03:00:00 10,1 -2,8 - 4 2 SW 0 0,0
03.08.2020 02:00:00 10,7 -2,1 - 2 1 SSW 0 0,0
03.08.2020 01:00:00 11,7 -0,8 - 2 1 W - 0,0
03.08.2020 00:00:00 12,7 0,4 - 2 1 W 0 0,0
02.08.2020 23:00:00 13,8 1,8 - 5 3 WSW 0 0,0
02.08.2020 22:00:00 16,0 4,4 - 5 3 WNW 0 0,0
02.08.2020 21:00:00 17,8 6,6 - 8 4 WNW 0 0,0
02.08.2020 20:00:00 18,7 7,7 - 9 5 W 0 0,0
02.08.2020 19:00:00 19,7 8,9 - 13 7 WSW 18 0,0
02.08.2020 18:00:00 20,9 10,4 - 16 9 WSW 48 0,0
02.08.2020 17:00:00 22,5 12,2 - 15 8 W 48 0,0
02.08.2020 16:00:00 22,2 12,0 - 16 9 W 48 0,0
02.08.2020 15:00:00 22,1 11,8 - 13 7 WSW 18 0,0
02.08.2020 14:00:00 20,5 10,0 - 16 9 W 30 0,0
02.08.2020 13:00:00 20,6 10,1 - 15 8 WSW 42 0,0
02.08.2020 12:00:00 19,7 8,9 - 15 8 WSW 24 0,0
02.08.2020 11:00:00 19,1 8,2 - 13 7 WSW 48 0,0
02.08.2020 10:00:00 17,1 5,8 18,7 13 7 WSW 12 0,0
02.08.2020 09:00:00 16,1 4,5 - 13 7 SW 60 0,0
02.08.2020 08:00:00 14,6 2,6 - 9 5 SW 60 0,0
02.08.2020 07:00:00 12,0 -0,5 - 9 5 SW 36 0,0
02.08.2020 06:00:00 11,7 -1,0 - 9 5 SW 0 0,0
02.08.2020 05:00:00 11,5 -1,2 - 8 4 SW 0 0,0
02.08.2020 04:00:00 11,6 -1,0 - 9 5 SW 0 0,0
02.08.2020 03:00:00 12,2 -0,2 - 9 5 SSW 0 0,0
02.08.2020 02:00:00 12,1 -0,4 - 5 3 SW 0 0,0
02.08.2020 01:00:00 13,0 0,7 - 8 4 SW - 0,0
02.08.2020 00:00:00 13,8 1,7 - 8 4 SSW 0 0,0
01.08.2020 23:00:00 14,5 2,6 - 9 5 WSW 0 0,0
01.08.2020 22:00:00 15,7 4,1 - 9 5 WSW 0 0,0
01.08.2020 21:00:00 17,1 5,8 - 9 5 W 6 0,0
01.08.2020 20:00:00 17,7 6,5 - 13 7 W 0 0,0
01.08.2020 19:00:00 18,3 7,2 - 16 9 W 0 0,0
01.08.2020 18:00:00 19,3 8,5 - 16 9 W 6 0,0
01.08.2020 17:00:00 20,1 9,4 - 16 9 W 18 0,0
01.08.2020 16:00:00 21,1 10,6 - 13 7 W 6 0,0
01.08.2020 15:00:00 20,9 10,4 - 16 9 W 0 0,0
01.08.2020 14:00:00 20,0 9,3 - 15 8 WSW 0 0,0
01.08.2020 13:00:00 21,4 11,0 - 16 9 WSW 42 0,0
01.08.2020 12:00:00 21,1 10,4 - 13 7 WSW 24 0,0
01.08.2020 11:00:00 19,5 8,7 - 11 6 W 0 0,0
01.08.2020 10:00:00 19,6 8,8 19,4 13 7 WSW 24 0,0
01.08.2020 09:00:00 19,0 8,1 - 15 8 SW 54 0,0
01.08.2020 08:00:00 17,8 6,5 - 11 6 SW 18 0,0
01.08.2020 07:00:00 16,5 4,9 - 9 5 SW 0 0,0
01.08.2020 06:00:00 16,2 4,5 - 5 3 SW 0 0,0
01.08.2020 05:00:00 15,7 4,0 - 8 4 SW 0 0,0
01.08.2020 04:00:00 15,4 3,7 - 4 2 SW 0 0,0
01.08.2020 03:00:00 15,2 3,5 - 4 2 SW 0 0,0
01.08.2020 02:00:00 15,7 4,1 - 4 2 SSW 0 0,0
01.08.2020 01:00:00 16,3 4,8 - 8 4 WSW - 0,0
01.08.2020 00:00:00 16,8 5,4 - 5 3 SW 0 0,0
31.07.2020 23:00:00 18,3 7,3 - 15 8 WSW 0 0,0
31.07.2020 22:00:00 20,0 9,3 - 11 6 SW 0 0,0
31.07.2020 21:00:00 20,7 10,1 - 15 8 SW 0 0,0
31.07.2020 20:00:00 22,3 12,1 - 11 6 SW 0 0,0
31.07.2020 19:00:00 23,7 13,8 - 13 7 WSW 0 0,0
31.07.2020 18:00:00 25,0 15,4 - 16 9 WSW 0 0,0
31.07.2020 17:00:00 26,5 17,2 - 18 10 WSW 0 0,0
31.07.2020 16:00:00 29,4 20,7 - 16 9 SW 48 0,0
31.07.2020 15:00:00 31,5 23,2 - 15 8 WSW 60 0,0
31.07.2020 14:00:00 31,3 23,0 - 15 8 SW 60 0,0
31.07.2020 13:00:00 31,0 22,6 - 8 4 S 60 0,0
31.07.2020 12:00:00 29,7 21,0 - 8 4 S 60 0,0
31.07.2020 11:00:00 28,0 18,8 - 4 2 S 60 0,0
31.07.2020 10:00:00 23,3 13,2 18,7 4 2 WNW 42 0,0
31.07.2020 09:00:00 20,0 9,0 - 2 1 ENE 60 0,0
31.07.2020 08:00:00 15,5 3,7 - 4 2 WSW 60 0,0
31.07.2020 07:00:00 13,2 0,9 - 4 2 SW 36 0,0
31.07.2020 06:00:00 12,3 -0,1 - 0 0 N 0 0,0
31.07.2020 05:00:00 13,0 0,7 - 5 3 SW 0 0,0
31.07.2020 04:00:00 12,8 0,5 - 2 1 N 0 0,0
31.07.2020 03:00:00 14,1 2,0 - 2 1 NE 0 0,0
31.07.2020 02:00:00 15,2 3,5 - 4 2 NE 0 0,0
31.07.2020 01:00:00 16,8 5,5 - 2 1 ENE - 0,0
31.07.2020 00:00:00 19,1 8,2 - 5 3 SE 0 0,0
30.07.2020 23:00:00 18,6 7,7 - 2 1 SSW 0 0,0
30.07.2020 22:00:00 21,0 10,6 - 5 3 SE 0 0,0
30.07.2020 21:00:00 23,1 13,3 - 4 2 SE 24 0,0
30.07.2020 20:00:00 26,2 17,0 - 4 2 SSE 60 0,0
30.07.2020 19:00:00 26,9 17,7 - 8 4 S 60 0,0
30.07.2020 18:00:00 27,4 18,4 - 8 4 S 60 0,0
30.07.2020 17:00:00 27,4 18,3 - 11 6 SSW 60 0,0
30.07.2020 16:00:00 26,6 17,4 - 9 5 S 60 0,0
30.07.2020 15:00:00 26,4 17,0 - 8 4 SSW 60 0,0
30.07.2020 14:00:00 25,3 15,7 - 9 5 SSW 60 0,0
30.07.2020 13:00:00 23,9 13,9 - 8 4 S 60 0,0
30.07.2020 12:00:00 22,0 11,8 - 5 3 WSW 54 0,0
30.07.2020 11:00:00 20,9 10,4 - 8 4 S 48 0,0
30.07.2020 10:00:00 19,6 8,7 17,4 8 4 S 18 0,0
30.07.2020 09:00:00 17,6 6,3 - 4 2 SSW 42 0,0
30.07.2020 08:00:00 15,3 3,5 - 5 3 SSW 36 0,0
30.07.2020 07:00:00 13,9 1,9 - 2 1 WSW 6 0,0
30.07.2020 06:00:00 13,5 1,3 - 4 2 SE 0 0,0
30.07.2020 05:00:00 13,9 1,9 - 4 2 SE 0 0,0
30.07.2020 04:00:00 14,1 2,2 - 2 1 W 0 0,0
30.07.2020 03:00:00 15,4 3,6 - 4 2 SW 0 0,0
30.07.2020 02:00:00 15,6 3,9 - 4 2 SSW 0 0,0
30.07.2020 01:00:00 15,6 3,9 - 4 2 SSW - 0,0
30.07.2020 00:00:00 16,4 4,9 - 5 3 SW 0 0,0
29.07.2020 23:00:00 16,7 5,4 - 4 2 WSW 0 0,0
29.07.2020 22:00:00 17,4 6,2 - 5 3 WSW 0 0,0
29.07.2020 21:00:00 18,4 7,3 - 8 4 W 0 0,0
29.07.2020 20:00:00 19,2 8,3 - 9 5 WSW 0 0,0
29.07.2020 19:00:00 19,7 8,9 - 11 6 WSW 0 0,0
29.07.2020 18:00:00 20,0 9,3 - 13 7 WSW 0 0,0
29.07.2020 17:00:00 20,3 9,7 - 11 6 SW 24 0,0
29.07.2020 16:00:00 20,4 9,8 - 9 5 WSW 18 0,0
29.07.2020 15:00:00 20,6 10,0 - 11 6 SW 0 0,0
29.07.2020 14:00:00 19,4 8,6 - 11 6 WSW 6 0,0
29.07.2020 13:00:00 19,2 8,3 - 11 6 WSW 6 1,0
29.07.2020 12:00:00 18,5 7,6 - 11 6 SW - 0,0
29.07.2020 11:00:00 - - - - - - - -
29.07.2020 10:00:00 - - - - - - - -
29.07.2020 09:00:00 - - - - - - - -
29.07.2020 08:00:00 - - - - - - - -
29.07.2020 07:00:00 - - - - - - - -
29.07.2020 06:00:00 - - - - - - - -
29.07.2020 05:00:00 - - - - - - - -
29.07.2020 04:00:00 - - - - - - - -
29.07.2020 03:00:00 - - - - - - - -
29.07.2020 02:00:00 - - - - - - - -
29.07.2020 01:00:00 - - - - - - - -
29.07.2020 00:00:00 - - - - - - - -

tt = temperature
td = dewpoint
tt -20cm = temperature -20cm
ff = wind speed
dd = wind direction
sd = sunshine duration
rr = precipitation

Next stations